Time;durP1;ratioP1;P1;durP2;ratioP2;P2;SDS_P1;SDS_P2;PMS_P1;PMS_P2;Temp;Humidity;BMP_temperature;BMP_pressure;BME280_temperature;BME280_humidity;BME280_pressure;Samples;Min_cycle;Max_cycle;Signal;HPM_P1;HPM_P2
2022/06/14 00:03:19;;;;;;;3.55;1.95;;;;;;;11.58;68.73;101067.81;5115515;28;20062;-53
2022/06/14 00:05:49;;;;;;;5.10;2.60;;;;;;;11.58;68.83;101073.38;5108356;28;20055;-54
2022/06/14 00:08:17;;;;;;;4.68;2.42;;;;;;;11.52;68.79;101076.59;5097124;28;20048;-53
2022/06/14 00:10:45;;;;;;;3.17;1.90;;;;;;;11.47;69.05;101079.47;5095652;28;20054;-53
2022/06/14 00:13:13;;;;;;;3.80;1.85;;;;;;;11.47;69.20;101071.09;5106980;28;20419;-54
2022/06/14 00:15:41;;;;;;;5.05;2.05;;;;;;;11.49;68.97;101075.25;5107995;28;20051;-53
2022/06/14 00:18:09;;;;;;;5.00;2.03;;;;;;;11.48;69.47;101072.75;5110855;28;20052;-54
2022/06/14 00:20:36;;;;;;;5.53;2.03;;;;;;;11.45;69.48;101065.00;5104177;28;20055;-54
2022/06/14 00:23:05;;;;;;;3.38;2.00;;;;;;;11.41;69.79;101061.16;5109555;28;20052;-54
2022/06/14 00:25:36;;;;;;;4.60;2.10;;;;;;;11.42;69.40;101060.03;5111632;28;20503;-52
2022/06/14 00:28:04;;;;;;;5.68;2.45;;;;;;;11.38;69.50;101060.66;5101380;28;20078;-52
2022/06/14 00:30:32;;;;;;;2.70;1.90;;;;;;;11.35;69.59;101049.25;5113272;28;20062;-52
2022/06/14 00:33:00;;;;;;;4.38;2.30;;;;;;;11.36;69.39;101059.31;5106123;28;20051;-53
2022/06/14 00:35:28;;;;;;;3.45;2.50;;;;;;;11.35;69.44;101058.44;5111032;28;20055;-53
2022/06/14 00:37:56;;;;;;;3.17;2.28;;;;;;;11.32;69.73;101059.06;5114024;28;20059;-51
2022/06/14 00:40:27;;;;;;;6.20;2.35;;;;;;;11.34;69.88;101056.00;5113553;28;20048;-55
2022/06/14 00:42:55;;;;;;;4.20;2.22;;;;;;;11.34;70.02;101062.38;5093469;28;20048;-53
2022/06/14 00:46:00;;;;;;;5.07;2.20;;;;;;;11.34;70.07;101065.19;5093775;28;20051;-53
2022/06/14 00:48:29;;;;;;;4.15;2.15;;;;;;;11.28;69.81;101058.03;5093141;28;20494;-52
2022/06/14 00:51:00;;;;;;;;;;;;;;;11.28;69.99;101054.41;5103326;28;20059;-53
2022/06/14 00:53:31;;;;;;;2.90;2.10;;;;;;;11.29;69.69;101048.50;5113578;28;19926;-53
2022/06/14 00:56:03;;;;;;;3.42;2.10;;;;;;;11.29;69.79;101042.94;5112994;28;20052;-51
2022/06/14 00:58:36;;;;;;;4.05;2.50;;;;;;;11.29;70.19;101045.72;5113717;28;20056;-53
2022/06/14 01:01:11;;;;;;;4.63;2.30;;;;;;;11.28;70.42;101049.66;5113366;28;20051;-54
2022/06/14 01:03:42;;;;;;;4.63;2.45;;;;;;;11.27;70.19;101055.53;5113585;28;20488;-54
2022/06/14 01:06:13;;;;;;;5.20;2.58;;;;;;;11.26;70.07;101048.31;5108308;28;20044;-54
2022/06/14 01:08:45;;;;;;;5.10;2.35;;;;;;;11.26;70.34;101043.56;5112744;28;20408;-54
2022/06/14 01:11:21;;;;;;;4.05;2.50;;;;;;;11.26;70.33;101049.13;5113292;28;20051;-52
2022/06/14 01:13:48;;;;;;;3.25;2.08;;;;;;;11.22;69.96;101048.09;5111015;28;20404;-53
2022/06/14 01:16:16;;;;;;;8.63;2.67;;;;;;;11.21;70.24;101045.59;5113118;28;20059;-54
2022/06/14 01:18:44;;;;;;;5.10;2.17;;;;;;;11.17;70.41;101045.38;5112642;28;20055;-53
2022/06/14 01:21:12;;;;;;;2.88;2.10;;;;;;;11.15;70.11;101042.91;5104708;28;20394;-51
2022/06/14 01:23:41;;;;;;;6.20;2.20;;;;;;;11.14;70.43;101041.25;5112559;28;20051;-54
2022/06/14 01:26:14;;;;;;;3.38;1.85;;;;;;;11.13;70.48;101038.78;5113005;28;20056;-53
2022/06/14 01:28:45;;;;;;;2.70;1.75;;;;;;;11.15;70.25;101039.31;5098875;28;20052;-52
2022/06/14 01:31:14;;;;;;;5.47;2.30;;;;;;;11.13;70.19;101044.34;5092230;28;20056;-50
2022/06/14 01:33:47;;;;;;;3.55;2.28;;;;;;;11.12;70.27;101039.88;5092296;28;20055;-54
2022/06/14 01:36:21;;;;;;;3.78;2.45;;;;;;;11.10;70.19;101036.56;5101652;28;20062;-53
2022/06/14 01:38:51;;;;;;;4.30;2.22;;;;;;;11.09;70.23;101037.72;5112508;28;20059;-60
2022/06/14 01:41:31;;;;;;;4.80;2.25;;;;;;;11.06;70.05;101041.09;5113105;28;20044;-60
2022/06/14 01:44:18;;;;;;;4.72;2.58;;;;;;;11.05;70.42;101036.69;5095167;28;20058;-60
2022/06/14 01:47:08;;;;;;;4.25;2.45;;;;;;;11.05;70.19;101031.09;5091729;28;20062;-60
2022/06/14 01:52:38;;;;;;;3.63;2.17;;;;;;;11.01;70.46;101041.19;5111452;28;20062;-60
2022/06/14 01:55:19;;;;;;;4.63;2.55;;;;;;;10.98;70.25;101037.03;5112224;28;20537;-59
2022/06/14 01:57:56;;;;;;;3.90;2.45;;;;;;;10.94;70.49;101035.97;5112626;28;20051;-52
2022/06/14 02:00:29;;;;;;;6.22;2.60;;;;;;;10.93;70.52;101035.16;5112705;28;20055;-55
2022/06/14 02:06:21;;;;;;;6.07;2.97;;;;;;;10.85;70.42;101035.84;5039255;28;20057;-54
2022/06/14 02:08:55;;;;;;;4.37;2.20;;;;;;;10.84;70.73;101036.16;5106209;28;20423;-55
2022/06/14 02:11:30;;;;;;;4.50;2.10;;;;;;;10.81;70.94;101040.38;5112064;28;20071;-55
2022/06/14 02:14:05;;;;;;;5.65;2.88;;;;;;;10.77;70.36;101030.94;5112071;28;20063;-54
2022/06/14 02:16:39;;;;;;;7.30;2.97;;;;;;;10.74;70.31;101026.00;5112947;28;20054;-53
2022/06/14 02:19:09;;;;;;;4.28;2.55;;;;;;;10.66;70.86;101029.47;5109297;28;20526;-60
2022/06/14 02:21:41;;;;;;;5.28;2.45;;;;;;;10.63;71.21;101025.31;5108410;28;20059;-61
2022/06/14 02:24:12;;;;;;;4.03;2.60;;;;;;;10.61;71.32;101035.13;5112328;28;20070;-61
2022/06/14 02:26:47;;;;;;;5.95;2.63;;;;;;;10.59;71.01;101031.81;5111987;28;20052;-61
2022/06/14 02:29:19;;;;;;;4.22;2.30;;;;;;;10.58;71.01;101030.97;5093893;28;20054;-61
2022/06/14 02:31:51;;;;;;;3.90;2.70;;;;;;;10.56;71.16;101036.00;5091449;28;20088;-54
2022/06/14 02:34:24;;;;;;;3.80;2.58;;;;;;;10.53;71.00;101026.28;5091724;28;20051;-52
2022/06/14 02:36:59;;;;;;;3.95;2.42;;;;;;;10.51;71.20;101028.56;5071133;28;20061;-55
2022/06/14 02:39:32;;;;;;;4.88;2.50;;;;;;;10.48;71.39;101026.38;5071965;28;20060;-55
2022/06/14 02:42:06;;;;;;;4.22;2.55;;;;;;;10.51;71.32;101024.94;5071950;28;20472;-54
2022/06/14 02:44:39;;;;;;;4.32;2.90;;;;;;;10.47;71.42;101026.69;5075235;28;20044;-55
2022/06/14 02:47:15;;;;;;;5.97;2.63;;;;;;;10.46;71.29;101025.84;5091460;28;20048;-54
2022/06/14 02:49:49;;;;;;;4.90;2.80;;;;;;;10.42;71.27;101024.78;5091363;28;20059;-53
2022/06/14 02:52:22;;;;;;;3.75;2.65;;;;;;;10.42;71.17;101018.41;5071591;28;20053;-60
2022/06/14 02:54:56;;;;;;;5.72;3.28;;;;;;;10.43;71.26;101018.06;5071409;28;20055;-61
2022/06/14 02:57:42;;;;;;;4.95;2.75;;;;;;;10.36;71.25;101020.41;5071379;28;20045;-60
2022/06/14 03:00:14;;;;;;;6.40;2.60;;;;;;;10.30;71.52;101028.00;5071618;28;20048;-60
2022/06/14 03:02:47;;;;;;;4.43;2.47;;;;;;;10.30;71.75;101018.84;5071943;28;20477;-60
2022/06/14 03:05:22;;;;;;;5.35;2.80;;;;;;;10.30;71.73;101016.88;5076041;28;20159;-60
2022/06/14 03:07:56;;;;;;;5.20;2.63;;;;;;;10.28;72.06;101021.88;5071257;28;20390;-60
2022/06/14 03:10:28;;;;;;;3.58;2.65;;;;;;;10.29;71.58;101012.44;5071612;28;20060;-60
2022/06/14 03:13:06;;;;;;;5.22;2.80;;;;;;;10.28;71.82;101029.41;5071206;28;20052;-60
2022/06/14 03:15:42;;;;;;;5.28;3.13;;;;;;;10.29;71.43;101031.94;5071682;28;20503;-61
2022/06/14 03:18:20;;;;;;;4.50;2.80;;;;;;;10.28;71.51;101018.28;5071063;28;20064;-60
2022/06/14 03:20:55;;;;;;;5.65;2.70;;;;;;;10.23;71.65;101026.69;5097046;28;20056;-59
2022/06/14 03:23:33;;;;;;;5.00;2.47;;;;;;;10.23;71.68;101026.69;5071042;28;20059;-60
2022/06/14 03:26:06;;;;;;;9.70;3.00;;;;;;;10.21;72.08;101027.00;5071083;28;20061;-60
2022/06/14 03:28:43;;;;;;;5.03;2.67;;;;;;;10.24;71.80;101028.34;5083502;28;20480;-60
2022/06/14 03:31:18;;;;;;;3.55;2.25;;;;;;;10.23;72.08;101033.09;5090994;28;20127;-60
2022/06/14 03:33:48;;;;;;;4.32;3.10;;;;;;;10.24;71.81;101033.91;5094426;28;20063;-59
2022/06/14 03:36:17;;;;;;;3.67;2.40;;;;;;;10.26;71.65;101032.47;5109325;28;20055;-60
2022/06/14 03:38:49;;;;;;;3.40;2.47;;;;;;;10.25;71.58;101036.41;5115203;28;20503;-59
2022/06/14 03:41:19;;;;;;;5.22;2.90;;;;;;;10.28;71.47;101037.75;5114516;28;20047;-60
2022/06/14 03:43:48;;;;;;;;;;;;;;;10.26;71.48;101038.06;5115142;28;20126;-59
2022/06/14 03:46:26;;;;;;;4.45;2.90;;;;;;;10.28;71.36;101035.78;5115309;28;19924;-59
2022/06/14 03:48:57;;;;;;;6.13;2.78;;;;;;;10.31;71.50;101023.25;5098161;28;20052;-60
2022/06/14 03:51:32;;;;;;;5.95;2.90;;;;;;;10.29;71.38;101031.06;5094631;28;20140;-60
2022/06/14 03:54:25;;;;;;;5.40;2.67;;;;;;;10.38;71.21;101032.09;5094441;28;20067;-60
2022/06/14 03:57:10;;;;;;;4.97;2.88;;;;;;;10.44;71.19;101038.44;5094584;28;20381;-60
2022/06/14 03:59:55;;;;;;;5.88;2.40;;;;;;;10.52;70.95;101030.22;5094402;28;20159;-61
2022/06/14 04:05:25;;;;;;;4.35;2.47;;;;;;;10.69;70.64;101020.53;5103940;28;20052;-60
2022/06/14 04:07:58;;;;;;;4.35;2.67;;;;;;;10.75;70.27;101022.91;5108922;28;20044;-60
2022/06/14 04:10:37;;;;;;;4.03;2.55;;;;;;;10.84;70.22;101025.84;5114936;28;20043;-60
2022/06/14 04:13:14;;;;;;;5.70;2.42;;;;;;;10.90;70.03;101023.81;5114437;28;20055;-58
2022/06/14 04:15:48;;;;;;;6.05;2.78;;;;;;;10.95;70.09;101032.09;5114725;28;20047;-60
2022/06/14 04:18:41;;;;;;;5.32;2.30;;;;;;;11.01;70.34;101032.84;5114135;28;20051;-57
2022/06/14 04:21:28;;;;;;;5.07;2.58;;;;;;;11.09;70.13;101032.16;5108302;28;20055;-59
2022/06/14 04:24:02;;;;;;;7.60;2.97;;;;;;;11.17;69.63;101031.44;5113468;28;20484;-59
2022/06/14 04:26:40;;;;;;;5.95;2.58;;;;;;;11.23;69.90;101038.56;5107347;28;20052;-60
2022/06/14 04:29:15;;;;;;;4.05;3.03;;;;;;;11.35;69.52;101030.56;5096369;28;20044;-59
2022/06/14 04:31:50;;;;;;;5.65;3.20;;;;;;;11.38;69.08;101027.19;5093675;28;20052;-60
2022/06/14 04:34:22;;;;;;;4.75;2.80;;;;;;;11.48;68.95;101025.31;5093635;28;20382;-60
2022/06/14 04:36:56;;;;;;;9.57;3.10;;;;;;;11.54;68.94;101021.31;5093242;28;20395;-59
2022/06/14 04:39:28;;;;;;;7.65;3.03;;;;;;;11.61;68.83;101021.72;5093635;28;20407;-60
2022/06/14 04:42:02;;;;;;;3.85;2.50;;;;;;;11.65;68.34;101016.34;5099085;28;20412;-59
2022/06/14 04:44:36;;;;;;;3.60;2.58;;;;;;;11.74;68.46;101020.94;5113277;28;20063;-61
2022/06/14 04:47:10;;;;;;;5.85;2.80;;;;;;;11.88;67.95;101031.25;5113987;28;20056;-59
2022/06/14 04:49:45;;;;;;;5.20;2.70;;;;;;;11.98;67.58;101023.53;5106334;28;20040;-59
2022/06/14 04:52:17;;;;;;;7.15;3.30;;;;;;;12.06;66.98;101013.63;5093203;28;20052;-60
2022/06/14 04:54:51;;;;;;;5.18;2.90;;;;;;;12.13;67.09;101021.56;5093025;28;20056;-59
2022/06/14 04:57:24;;;;;;;3.72;2.55;;;;;;;12.22;67.15;101018.88;5106629;28;20051;-59
2022/06/14 04:59:54;;;;;;;6.53;3.28;;;;;;;12.23;67.27;101023.31;5113059;28;20048;-58
2022/06/14 05:02:26;;;;;;;4.15;2.72;;;;;;;12.30;67.15;101023.72;5114021;28;20373;-60
2022/06/14 05:04:58;;;;;;;4.60;2.80;;;;;;;12.30;66.94;101018.13;5113202;28;20054;-59
2022/06/14 05:07:31;;;;;;;5.10;2.78;;;;;;;12.34;67.04;101011.59;5113646;28;20051;-60
2022/06/14 05:10:05;;;;;;;5.95;3.10;;;;;;;12.34;67.04;101013.56;5112978;28;20055;-60
2022/06/14 05:12:46;;;;;;;7.25;3.30;;;;;;;12.40;66.46;101012.31;5108674;28;20051;-60
2022/06/14 05:15:19;;;;;;;4.85;2.72;;;;;;;12.51;66.13;101013.75;5112919;28;20052;-59
2022/06/14 05:17:52;;;;;;;5.95;3.47;;;;;;;12.54;66.04;101015.09;5108345;28;20043;-56
2022/06/14 05:20:25;;;;;;;4.55;3.13;;;;;;;12.60;66.00;101025.03;5107072;28;20476;-59
2022/06/14 05:23:00;;;;;;;5.82;3.08;;;;;;;12.64;66.56;101011.22;5106314;28;20048;-58
2022/06/14 05:25:41;;;;;;;4.20;3.20;;;;;;;12.64;66.55;101014.88;5091124;28;20519;-58
2022/06/14 05:28:12;;;;;;;6.47;3.20;;;;;;;12.74;66.22;101014.59;5093725;28;20075;-59
2022/06/14 05:30:48;;;;;;;5.25;3.17;;;;;;;12.74;66.47;101011.00;5085576;28;20047;-59
2022/06/14 05:33:29;;;;;;;6.38;3.00;;;;;;;12.79;66.63;101022.06;5084316;28;20052;-61
2022/06/14 05:36:04;;;;;;;8.65;3.35;;;;;;;12.89;66.31;101024.63;5072169;28;20067;-60
2022/06/14 05:38:40;;;;;;;6.03;2.90;;;;;;;12.97;66.02;101011.84;5082349;28;20052;-60
2022/06/14 05:41:12;;;;;;;6.25;3.42;;;;;;;13.07;66.01;101019.97;5085199;28;20063;-60
2022/06/14 05:43:44;;;;;;;6.25;2.92;;;;;;;13.20;65.64;101023.84;5074386;28;20056;-60
2022/06/14 05:46:18;;;;;;;4.65;2.53;;;;;;;13.32;65.55;101026.09;5089378;28;20048;-60
2022/06/14 05:48:51;;;;;;;6.85;3.30;;;;;;;13.37;65.70;101026.78;5099583;28;20432;-58
2022/06/14 05:51:21;;;;;;;7.47;3.65;;;;;;;13.49;65.76;101029.00;5095865;28;20052;-58
2022/06/14 05:53:54;;;;;;;6.15;3.42;;;;;;;13.57;65.64;101033.81;5092755;28;20052;-60
2022/06/14 05:56:31;;;;;;;7.20;4.30;;;;;;;13.66;65.75;101035.84;5090950;28;20060;-60
2022/06/14 05:59:05;;;;;;;6.97;3.88;;;;;;;13.75;65.84;101043.16;5091563;28;20044;-61
2022/06/14 06:01:36;;;;;;;6.82;4.20;;;;;;;13.83;65.98;101032.28;5091853;28;20408;-59
2022/06/14 06:04:10;;;;;;;7.82;3.60;;;;;;;13.93;65.53;101040.41;5105482;28;20052;-61
2022/06/14 06:06:42;;;;;;;5.40;3.50;;;;;;;14.01;65.36;101039.63;5101509;28;20052;-60
2022/06/14 06:09:16;;;;;;;6.30;3.70;;;;;;;14.13;64.45;101036.19;5078418;28;20052;-61
2022/06/14 06:11:48;;;;;;;8.70;4.82;;;;;;;14.23;64.27;101040.69;5090056;28;20056;-59
2022/06/14 06:14:22;;;;;;;8.60;4.63;;;;;;;14.36;63.77;101034.09;5082726;28;20056;-60
2022/06/14 06:16:55;;;;;;;6.50;4.10;;;;;;;14.47;63.13;101041.06;5076740;28;20048;-59
2022/06/14 06:19:28;;;;;;;5.97;3.65;;;;;;;14.58;62.74;101036.81;5096533;28;20074;-59
2022/06/14 06:22:02;;;;;;;8.07;3.88;;;;;;;14.70;61.92;101039.00;5072358;28;20064;-57
2022/06/14 06:24:38;;;;;;;5.85;3.80;;;;;;;14.77;61.64;101033.72;5070683;28;20048;-58
2022/06/14 06:27:09;;;;;;;7.55;3.83;;;;;;;14.87;61.25;101032.56;5077873;28;20056;-60
2022/06/14 06:29:44;;;;;;;8.27;4.15;;;;;;;14.96;60.15;101038.16;5084926;28;20048;-60
2022/06/14 06:32:12;;;;;;;7.40;3.50;;;;;;;15.01;60.60;101036.03;5068144;28;20052;-59
2022/06/14 06:34:42;;;;;;;6.32;3.75;;;;;;;15.21;60.11;101036.50;5100801;28;20056;-61
2022/06/14 06:37:18;;;;;;;8.88;4.25;;;;;;;15.36;60.02;101033.16;5106810;28;20392;-59
2022/06/14 06:39:50;;;;;;;7.57;3.80;;;;;;;15.51;59.88;101036.59;5088890;28;20052;-60
2022/06/14 06:42:24;;;;;;;11.82;4.10;;;;;;;15.66;59.10;101038.03;5088204;28;20493;-60
2022/06/14 06:44:56;;;;;;;8.30;4.28;;;;;;;15.72;58.86;101040.38;5086847;28;20051;-60
2022/06/14 06:47:29;;;;;;;8.25;4.18;;;;;;;15.90;58.28;101045.94;5083090;28;20048;-60
2022/06/14 06:50:09;;;;;;;8.10;3.67;;;;;;;16.00;58.62;101042.72;5086147;28;20071;-60
2022/06/14 06:52:44;;;;;;;9.73;3.95;;;;;;;16.10;58.54;101039.53;5102418;28;20056;-60
2022/06/14 06:55:14;;;;;;;8.35;3.97;;;;;;;16.18;58.04;101047.13;5099508;28;20526;-61
2022/06/14 06:57:46;;;;;;;12.18;3.90;;;;;;;16.28;58.03;101045.09;5107856;28;20052;-60
2022/06/14 07:00:18;;;;;;;6.38;3.17;;;;;;;16.42;56.69;101040.88;5085188;28;20067;-60
2022/06/14 07:02:51;;;;;;;9.48;3.67;;;;;;;16.55;56.63;101040.97;5073919;28;20051;-61
2022/06/14 07:05:21;;;;;;;10.25;3.38;;;;;;;16.64;55.84;101042.53;5098282;28;20059;-61
2022/06/14 07:07:56;;;;;;;6.13;3.08;;;;;;;16.75;56.24;101045.75;5111626;28;20404;-61
2022/06/14 07:10:38;;;;;;;6.45;3.25;;;;;;;16.86;56.71;101042.56;5091550;28;21335;-61
2022/06/14 07:13:16;;;;;;;9.05;3.28;;;;;;;17.02;55.36;101041.59;5093816;28;20155;-61
2022/06/14 07:15:48;;;;;;;6.07;2.90;;;;;;;17.18;54.85;101033.38;5095579;28;20127;-60
2022/06/14 07:18:18;;;;;;;8.55;2.72;;;;;;;17.28;54.80;101037.72;5104250;28;20078;-61
2022/06/14 07:20:53;;;;;;;9.82;2.80;;;;;;;17.42;54.62;101041.06;5102746;28;20472;-60
2022/06/14 07:23:28;;;;;;;7.35;2.80;;;;;;;17.40;54.47;101040.59;5080113;28;20048;-61
2022/06/14 07:26:09;;;;;;;8.35;2.80;;;;;;;17.61;53.58;101043.34;5088802;28;20055;-61
2022/06/14 07:28:44;;;;;;;7.68;2.42;;;;;;;17.79;53.48;101040.34;5074480;28;20451;-60
2022/06/14 07:31:21;;;;;;;5.53;2.22;;;;;;;17.93;52.75;101040.88;5082047;28;20048;-61
2022/06/14 07:33:51;;;;;;;6.60;2.50;;;;;;;18.03;51.20;101042.38;5097270;28;20040;-61
2022/06/14 07:36:30;;;;;;;5.60;2.30;;;;;;;18.13;51.37;101039.09;5082516;28;20067;-61
2022/06/14 07:39:06;;;;;;;7.05;2.28;;;;;;;18.26;50.49;101037.91;5081447;28;20055;-61
2022/06/14 07:41:42;;;;;;;4.80;2.30;;;;;;;18.38;50.48;101033.47;5079548;28;20051;-61
2022/06/14 07:44:20;;;;;;;8.00;2.83;;;;;;;18.44;50.15;101038.50;5078376;28;20419;-60
2022/06/14 07:46:58;;;;;;;7.28;2.70;;;;;;;18.62;49.92;101035.41;5077776;28;20052;-61
2022/06/14 07:49:34;;;;;;;5.43;2.22;;;;;;;18.70;49.16;101033.66;5103515;28;20063;-61
2022/06/14 07:52:09;;;;;;;6.15;2.25;;;;;;;18.79;47.61;101025.88;5093709;28;20519;-60
2022/06/14 07:54:42;;;;;;;6.10;2.00;;;;;;;18.99;48.18;101024.88;5093357;28;20052;-61
2022/06/14 07:57:15;;;;;;;4.68;2.03;;;;;;;19.46;45.56;101026.19;5086469;28;20052;-61
2022/06/14 07:59:49;;;;;;;5.25;1.95;;;;;;;20.55;43.39;101020.06;5113558;28;20063;-61
2022/06/14 08:02:24;;;;;;;6.40;2.20;;;;;;;21.74;40.96;101020.53;5100454;28;20047;-61
2022/06/14 08:04:55;;;;;;;5.88;2.78;;;;;;;22.61;39.23;101019.94;5094024;28;20404;-61
2022/06/14 08:07:26;;;;;;;5.25;2.38;;;;;;;23.12;37.47;101015.75;5095141;28;20492;-61
2022/06/14 08:10:01;;;;;;;6.18;2.30;;;;;;;24.07;35.74;101005.81;5082041;28;20052;-61
2022/06/14 08:12:35;;;;;;;6.32;2.28;;;;;;;24.42;35.27;101007.25;5088827;28;20055;-61
2022/06/14 08:15:07;;;;;;;5.45;2.58;;;;;;;24.90;33.84;101005.13;5104796;28;20052;-57
2022/06/14 08:17:41;;;;;;;7.00;2.20;;;;;;;25.68;32.49;101005.78;5084531;28;20500;-62
2022/06/14 08:20:17;;;;;;;7.10;2.67;;;;;;;27.19;31.19;100997.00;5092320;28;20064;-62
2022/06/14 08:22:50;;;;;;;5.68;2.17;;;;;;;27.62;28.89;100997.59;5098279;28;20052;-62
2022/06/14 08:25:22;;;;;;;5.53;2.10;;;;;;;28.61;28.38;100994.28;5079499;28;20052;-61
2022/06/14 08:27:55;;;;;;;6.50;2.28;;;;;;;29.26;27.33;100997.19;5090023;28;20382;-62
2022/06/14 08:30:29;;;;;;;5.50;2.75;;;;;;;29.71;26.46;100996.16;5086391;28;20052;-60
2022/06/14 08:33:03;;;;;;;4.85;2.47;;;;;;;30.43;25.67;100994.94;5087218;28;20044;-60
2022/06/14 08:35:36;;;;;;;5.68;2.97;;;;;;;31.04;25.51;100994.56;5101666;28;20058;-60
2022/06/14 08:38:12;;;;;;;6.50;2.40;;;;;;;32.05;24.49;100987.31;5113808;28;20058;-61
2022/06/14 08:40:59;;;;;;;6.28;2.80;;;;;;;32.69;22.32;100984.75;5095241;28;20050;-61
2022/06/14 08:43:33;;;;;;;6.40;2.15;;;;;;;34.19;21.69;100981.34;5100064;28;20492;-60
2022/06/14 08:46:18;;;;;;;5.55;2.40;;;;;;;34.84;21.07;100973.22;5092068;28;20502;-61
2022/06/14 08:49:07;;;;;;;4.65;2.38;;;;;;;34.89;20.24;100973.41;5082564;28;20063;-62
2022/06/14 08:51:47;;;;;;;12.52;4.47;;;;;;;33.63;21.24;100971.22;5094081;28;20483;-62
2022/06/14 08:55:00;;;;;;;6.72;2.70;;;;;;;34.70;21.06;100972.47;5098657;28;20051;-58
2022/06/14 08:58:08;;;;;;;6.22;2.50;;;;;;;34.32;20.96;100975.53;5087928;28;20057;-62
2022/06/14 09:00:48;;;;;;;5.95;2.42;;;;;;;33.92;21.47;100981.84;5052821;28;20056;-61
2022/06/14 09:03:44;;;;;;;5.13;2.25;;;;;;;32.60;21.63;100980.94;5069436;28;20056;-61
2022/06/14 09:06:43;;;;;;;5.97;2.38;;;;;;;30.91;23.37;100982.94;5067350;28;20064;-61
2022/06/14 09:09:39;;;;;;;5.80;2.60;;;;;;;29.80;25.12;100975.50;5049315;28;20056;-61
2022/06/14 09:12:38;;;;;;;5.35;2.63;;;;;;;31.33;23.87;100976.66;5082776;28;20059;-57
2022/06/14 09:15:52;;;;;;;4.68;2.35;;;;;;;33.33;21.50;100969.72;5058680;28;20064;-62
2022/06/14 09:18:44;;;;;;;4.03;2.30;;;;;;;34.28;18.70;100969.84;5024515;28;20079;-64
2022/06/14 09:21:23;;;;;;;7.60;2.17;;;;;;;36.31;18.51;100968.06;5052647;28;20049;-62
2022/06/14 09:24:11;;;;;;;4.72;2.75;;;;;;;37.88;16.53;100961.88;5071204;28;20056;-62
2022/06/14 09:26:47;;;;;;;5.88;2.70;;;;;;;38.83;15.64;100964.41;5075449;28;20048;-62
2022/06/14 09:29:58;;;;;;;4.25;2.30;;;;;;;40.26;14.50;100964.88;5089198;28;20061;-61
2022/06/14 09:33:10;;;;;;;4.95;2.78;;;;;;;40.95;14.78;100964.34;5053486;28;20465;-59
2022/06/14 09:36:04;;;;;;;6.95;3.30;;;;;;;42.11;14.26;100955.44;5064514;28;20056;-61
2022/06/14 09:39:11;;;;;;;6.20;2.97;;;;;;;43.19;13.30;100954.38;5059188;28;20052;-59
2022/06/14 09:42:03;;;;;;;5.25;2.78;;;;;;;43.46;12.35;100952.78;5010268;28;20430;-59
2022/06/14 09:44:56;;;;;;;4.90;2.45;;;;;;;44.09;12.20;100956.41;5061233;28;20044;-59
2022/06/14 09:47:51;;;;;;;6.13;2.50;;;;;;;44.08;11.71;100951.88;5071102;28;20084;-58
2022/06/14 09:51:04;;;;;;;3.70;2.08;;;;;;;44.60;11.88;100953.22;5054797;28;20052;-59
2022/06/14 09:54:03;;;;;;;3.88;2.35;;;;;;;44.38;11.93;100955.72;5061615;28;20412;-59
2022/06/14 09:57:10;;;;;;;5.28;2.50;;;;;;;44.45;11.54;100950.63;5054514;28;20074;-59
2022/06/14 10:00:00;;;;;;;4.57;2.30;;;;;;;43.43;10.92;100948.00;5064239;28;20056;-60
2022/06/14 10:02:42;;;;;;;4.80;2.22;;;;;;;43.09;11.92;100950.94;5091449;28;20043;-58
2022/06/14 10:05:38;;;;;;;6.97;2.10;;;;;;;43.66;11.11;100950.91;5074490;28;20060;-58
2022/06/14 10:08:29;;;;;;;5.50;2.38;;;;;;;43.59;11.45;100952.22;5070513;28;20067;-59
2022/06/14 10:11:13;;;;;;;3.95;2.38;;;;;;;43.64;11.29;100956.47;5087404;28;20071;-59
2022/06/14 10:14:00;;;;;;;4.57;2.35;;;;;;;44.12;11.60;100956.13;5083836;28;20412;-60
2022/06/14 10:16:40;;;;;;;;;;;;;;;44.06;11.32;100945.72;5075026;28;20044;-59
2022/06/14 10:19:39;;;;;;;5.13;2.30;;;;;;;44.55;10.58;100949.00;5071714;28;19927;-59
2022/06/14 10:22:18;;;;;;;4.93;2.10;;;;;;;44.22;11.48;100947.78;5083321;28;20044;-60
2022/06/14 10:24:54;;;;;;;7.03;2.80;;;;;;;44.72;11.05;100948.88;5081356;28;20064;-60
2022/06/14 10:30:37;;;;;;;3.72;2.53;;;;;;;45.68;11.16;100934.19;5085705;28;20071;-59
2022/06/14 10:33:27;;;;;;;9.23;3.33;;;;;;;45.38;11.16;100945.97;5089006;28;20067;-59
2022/06/14 10:36:13;;;;;;;5.13;2.90;;;;;;;45.39;10.87;100938.75;5085508;28;20052;-60
2022/06/14 10:38:56;;;;;;;6.20;3.33;;;;;;;46.16;10.38;100931.75;5085198;28;20040;-60
2022/06/14 10:41:34;;;;;;;5.40;2.35;;;;;;;46.68;10.40;100930.47;5077363;28;20413;-59
2022/06/14 10:44:14;;;;;;;5.35;3.03;;;;;;;46.80;10.11;100936.25;5090785;28;20157;-60
2022/06/14 10:46:50;;;;;;;3.90;3.03;;;;;;;46.58;10.32;100927.16;5079589;28;20064;-59
2022/06/14 10:49:57;;;;;;;6.35;3.10;;;;;;;46.56;9.91;100923.19;5083084;28;20040;-59
2022/06/14 10:52:37;;;;;;;5.85;3.28;;;;;;;46.13;10.90;100932.88;5078226;28;20045;-61
2022/06/14 10:55:28;;;;;;;4.85;3.10;;;;;;;46.54;10.12;100920.78;5079231;28;20090;-59
2022/06/14 10:58:18;;;;;;;5.68;2.85;;;;;;;46.22;9.80;100914.78;5093430;28;20047;-60
2022/06/14 11:00:52;;;;;;;6.03;3.17;;;;;;;46.61;10.07;100912.66;5074923;28;20052;-59
2022/06/14 11:03:46;;;;;;;4.32;2.58;;;;;;;46.91;9.47;100907.34;5100179;28;20056;-59
2022/06/14 11:06:41;;;;;;;5.50;2.63;;;;;;;46.36;10.19;100906.84;5079635;28;20056;-59
2022/06/14 11:09:21;;;;;;;4.95;3.08;;;;;;;46.64;10.17;100903.47;5085534;28;20075;-59
2022/06/14 11:12:11;;;;;;;6.43;2.70;;;;;;;46.37;10.25;100896.66;5099875;28;20487;-59
2022/06/14 11:14:48;;;;;;;4.05;2.60;;;;;;;46.92;9.84;100890.47;5114805;28;20047;-59
2022/06/14 11:17:51;;;;;;;5.40;3.35;;;;;;;46.85;9.64;100891.91;5104884;28;20063;-59
2022/06/14 11:20:35;;;;;;;4.93;3.70;;;;;;;45.48;10.30;100891.31;5094554;28;20505;-60
2022/06/14 11:23:12;;;;;;;5.68;3.58;;;;;;;45.50;10.49;100884.88;5095772;28;20056;-60
2022/06/14 11:25:48;;;;;;;7.45;2.95;;;;;;;45.64;10.64;100879.94;5098152;28;20062;-60
2022/06/14 11:28:25;;;;;;;6.47;3.10;;;;;;;45.88;11.02;100879.88;5110401;28;20972;-59
2022/06/14 11:30:57;;;;;;;;;;;;;;;45.42;11.08;100884.69;5095368;28;20059;-60
2022/06/14 11:33:39;;;;;;;6.88;3.40;;;;;;;45.50;10.25;100876.84;5097250;28;19919;-59
2022/06/14 11:36:23;;;;;;;5.10;3.20;;;;;;;45.24;10.71;100873.63;5090864;28;20484;-60
2022/06/14 11:39:06;;;;;;;6.78;3.67;;;;;;;44.81;11.50;100875.06;5081348;28;20055;-60
2022/06/14 11:41:42;;;;;;;5.93;3.70;;;;;;;44.88;11.33;100870.75;5104132;28;20070;-61
2022/06/14 11:44:24;;;;;;;5.18;2.95;;;;;;;45.14;11.32;100876.91;5108269;28;20063;-61
2022/06/14 11:47:03;;;;;;;4.85;3.00;;;;;;;44.81;11.43;100877.19;5085056;28;20055;-61
2022/06/14 11:49:38;;;;;;;5.75;4.30;;;;;;;44.48;11.84;100864.34;5081281;28;20052;-60
2022/06/14 11:52:23;;;;;;;6.22;3.97;;;;;;;44.41;12.37;100865.72;5074777;28;20048;-61
2022/06/14 11:55:06;;;;;;;6.03;3.85;;;;;;;44.45;11.91;100865.44;5085913;28;20064;-59
2022/06/14 11:57:41;;;;;;;5.90;3.80;;;;;;;44.33;11.66;100877.25;5084567;28;20493;-60
2022/06/14 12:00:32;;;;;;;5.97;3.50;;;;;;;44.48;11.70;100864.34;5101029;28;20420;-59
2022/06/14 12:03:07;;;;;;;7.30;4.43;;;;;;;44.48;11.63;100859.28;5075027;28;20071;-59
2022/06/14 12:05:44;;;;;;;7.75;4.50;;;;;;;43.32;12.42;100848.28;5087194;28;20056;-59
2022/06/14 12:08:46;;;;;;;6.25;4.22;;;;;;;42.76;12.68;100864.56;5093909;28;20052;-59
2022/06/14 12:11:22;;;;;;;6.10;4.57;;;;;;;42.81;12.37;100851.22;5096682;28;20389;-60
2022/06/14 12:14:10;;;;;;;5.43;4.03;;;;;;;42.16;12.69;100855.09;5091540;28;20055;-59
2022/06/14 12:16:39;;;;;;;;;;;;;;;41.35;13.18;100851.50;5102150;28;20048;-60
2022/06/14 12:19:09;;;;;;;8.23;4.18;;;;;;;42.08;12.71;100848.16;5105951;28;19920;-59
2022/06/14 12:21:46;;;;;;;8.52;3.97;;;;;;;41.75;13.19;100849.63;5080777;28;20401;-59
2022/06/14 12:24:21;;;;;;;7.22;3.90;;;;;;;41.73;12.88;100846.44;5073564;28;20052;-59
2022/06/14 12:26:55;;;;;;;5.07;3.65;;;;;;;41.95;13.65;100839.84;5092125;28;20075;-59
2022/06/14 12:29:27;;;;;;;6.93;4.60;;;;;;;41.54;13.41;100840.19;5090415;28;20052;-59